Time;durP1;ratioP1;P1;durP2;ratioP2;P2;SDS_P1;SDS_P2;PMS_P1;PMS_P2;Temp;Humidity;BMP_temperature;BMP_pressure;BME280_temperature;BME280_humidity;BME280_pressure;Samples;Min_cycle;Max_cycle;Signal;HPM_P1;HPM_P2
2022/03/22 00:01:24;;;;;;;21.38;14.10;;;;;;;;;;5101132;28;20224;-14
2022/03/22 00:03:51;;;;;;;18.67;14.02;;;;;;;;;;5103567;27;20232;-14
2022/03/22 00:06:18;;;;;;;20.13;13.85;;;;;;;;;;5089635;28;20232;-14
2022/03/22 00:08:45;;;;;;;17.58;13.65;;;;;;;;;;5085228;28;20256;-14
2022/03/22 00:11:12;;;;;;;16.85;13.23;;;;;;;;;;5084924;28;20225;-14
2022/03/22 00:13:39;;;;;;;16.20;13.38;;;;;;;;;;5087527;28;20236;-14
2022/03/22 00:16:07;;;;;;;17.83;13.98;;;;;;;;;;5087998;28;20225;-14
2022/03/22 00:18:54;;;;;;;25.48;14.18;;;;;;;;;;5083603;28;20240;-14
2022/03/22 00:21:22;;;;;;;19.25;14.40;;;;;;;;;;5086728;28;20244;-14
2022/03/22 00:23:49;;;;;;;18.95;13.10;;;;;;;;;;5087495;28;20683;-14
2022/03/22 00:26:16;;;;;;;24.17;15.23;;;;;;;;;;5091333;28;20427;-13
2022/03/22 00:28:43;;;;;;;27.70;16.95;;;;;;;;;;5088525;28;20234;-13
2022/03/22 00:31:10;;;;;;;24.63;17.58;;;;;;;;;;5088863;28;20709;-13
2022/03/22 00:33:37;;;;;;;27.60;17.38;;;;;;;;;;5088033;28;20407;-13
2022/03/22 00:36:04;;;;;;;29.25;16.15;;;;;;;;;;5091006;28;20237;-13
2022/03/22 00:38:31;;;;;;;30.23;16.42;;;;;;;;;;5089766;28;20225;-13
2022/03/22 00:40:58;;;;;;;27.10;17.00;;;;;;;;;;5090801;28;20766;-13
2022/03/22 00:43:25;;;;;;;27.58;15.70;;;;;;;;;;5091493;28;20324;-13
2022/03/22 00:45:52;;;;;;;28.15;16.38;;;;;;;;;;5092607;28;20720;-13
2022/03/22 00:48:19;;;;;;;24.15;16.27;;;;;;;;;;5089551;28;20271;-13
2022/03/22 00:50:47;;;;;;;25.25;17.15;;;;;;;;;;5090848;28;20235;-13
2022/03/22 00:53:14;;;;;;;27.77;15.70;;;;;;;;;;5090927;28;20259;-13
2022/03/22 00:55:41;;;;;;;23.70;17.15;;;;;;;;;;5091272;28;20224;-13
2022/03/22 00:58:08;;;;;;;22.15;16.48;;;;;;;;;;5092782;28;20213;-13
2022/03/22 01:00:35;;;;;;;26.23;17.15;;;;;;;;;;5098192;28;20848;-13
2022/03/22 01:03:02;;;;;;;21.90;16.30;;;;;;;;;;5083264;28;20287;-13
2022/03/22 01:05:29;;;;;;;24.70;15.68;;;;;;;;;;5072841;28;20229;-13
2022/03/22 01:07:56;;;;;;;25.17;16.38;;;;;;;;;;5073305;28;20223;-13
2022/03/22 01:10:23;;;;;;;21.45;16.27;;;;;;;;;;5090693;28;20239;-13
2022/03/22 01:12:50;;;;;;;21.50;15.88;;;;;;;;;;5093172;28;20225;-13
2022/03/22 01:15:18;;;;;;;23.67;16.63;;;;;;;;;;5095497;28;20679;-13
2022/03/22 01:17:45;;;;;;;24.23;16.45;;;;;;;;;;5113853;27;20259;-13
2022/03/22 01:20:12;;;;;;;21.92;15.68;;;;;;;;;;5099849;28;20228;-13
2022/03/22 01:22:39;;;;;;;22.13;16.10;;;;;;;;;;5080438;28;20241;-13
2022/03/22 01:25:06;;;;;;;23.45;16.30;;;;;;;;;;5088237;28;20233;-13
2022/03/22 01:27:32;;;;;;;21.73;16.75;;;;;;;;;;5092303;28;20236;-13
2022/03/22 01:30:00;;;;;;;20.27;16.38;;;;;;;;;;5084755;28;20243;-13
2022/03/22 01:32:27;;;;;;;23.65;17.08;;;;;;;;;;5093190;28;20722;-13
2022/03/22 01:34:53;;;;;;;24.13;16.23;;;;;;;;;;5093467;28;20267;-13
2022/03/22 01:37:20;;;;;;;21.20;15.98;;;;;;;;;;5093122;28;20981;-13
2022/03/22 01:39:47;;;;;;;20.00;16.27;;;;;;;;;;5080460;28;20229;-13
2022/03/22 01:42:14;;;;;;;20.10;15.95;;;;;;;;;;5082129;28;20597;-13
2022/03/22 01:44:41;;;;;;;20.17;15.07;;;;;;;;;;5092680;28;20228;-13
2022/03/22 01:47:08;;;;;;;21.45;15.90;;;;;;;;;;5110283;28;20235;-13
2022/03/22 01:49:35;;;;;;;19.08;16.38;;;;;;;;;;5101642;28;20228;-13
2022/03/22 01:52:03;;;;;;;21.35;15.80;;;;;;;;;;5092916;28;20221;-13
2022/03/22 01:54:30;;;;;;;22.05;16.40;;;;;;;;;;5091765;28;20240;-13
2022/03/22 01:56:57;;;;;;;21.88;16.10;;;;;;;;;;5093322;28;20275;-13
2022/03/22 01:59:24;;;;;;;25.42;15.18;;;;;;;;;;5084274;28;20232;-13
2022/03/22 02:07:23;;;;;;;21.75;17.05;;;;;;;;;;5092607;28;20225;-13
2022/03/22 02:09:50;;;;;;;17.73;15.07;;;;;;;;;;5091768;28;20240;-13
2022/03/22 02:12:17;;;;;;;20.27;15.10;;;;;;;;;;5092757;28;20224;-13
2022/03/22 02:14:44;;;;;;;18.80;14.50;;;;;;;;;;5090612;28;21041;-13
2022/03/22 02:17:11;;;;;;;18.48;14.70;;;;;;;;;;5110560;28;20228;-13
2022/03/22 02:19:38;;;;;;;20.23;13.88;;;;;;;;;;5101789;28;20233;-13
2022/03/22 02:22:05;;;;;;;18.23;14.75;;;;;;;;;;5091925;28;20744;-13
2022/03/22 02:24:32;;;;;;;20.33;14.68;;;;;;;;;;5092640;28;20710;-13
2022/03/22 02:26:59;;;;;;;26.55;15.60;;;;;;;;;;5091978;28;20225;-13
2022/03/22 02:29:26;;;;;;;20.83;15.65;;;;;;;;;;5083927;28;20244;-13
2022/03/22 02:31:53;;;;;;;18.77;14.55;;;;;;;;;;5101945;27;20239;-13
2022/03/22 02:34:20;;;;;;;20.55;15.35;;;;;;;;;;5112318;28;20296;-13
2022/03/22 02:36:47;;;;;;;17.73;14.75;;;;;;;;;;5106115;28;20224;-13
2022/03/22 02:39:14;;;;;;;17.48;13.80;;;;;;;;;;5091593;28;20232;-13
2022/03/22 02:41:42;;;;;;;18.80;14.10;;;;;;;;;;5092395;28;20236;-13
2022/03/22 02:44:12;;;;;;;18.23;14.07;;;;;;;;;;5092395;28;20221;-13
2022/03/22 02:46:39;;;;;;;18.10;14.35;;;;;;;;;;5105741;28;20271;-13
2022/03/22 02:49:07;;;;;;;17.63;13.90;;;;;;;;;;5093510;28;20765;-13
2022/03/22 02:51:34;;;;;;;17.30;13.77;;;;;;;;;;5092317;28;20964;-13
2022/03/22 02:54:01;;;;;;;17.67;14.18;;;;;;;;;;5092290;28;20691;-13
2022/03/22 02:56:28;;;;;;;20.77;14.35;;;;;;;;;;5092138;28;20224;-13
2022/03/22 02:58:55;;;;;;;21.25;14.18;;;;;;;;;;5076505;28;20229;-13
2022/03/22 03:01:22;;;;;;;16.67;13.77;;;;;;;;;;5093484;28;20228;-13
2022/03/22 03:03:49;;;;;;;18.25;14.50;;;;;;;;;;5091393;28;20867;-13
2022/03/22 03:06:16;;;;;;;19.42;14.80;;;;;;;;;;5091878;28;20710;-13
2022/03/22 03:08:43;;;;;;;16.17;13.80;;;;;;;;;;5090910;28;20232;-13
2022/03/22 03:11:12;;;;;;;19.55;13.52;;;;;;;;;;5090841;28;20305;-13
2022/03/22 03:16:25;;;;;;;16.05;13.02;;;;;;;;;;5102902;28;20234;-13
2022/03/22 03:18:52;;;;;;;18.45;13.55;;;;;;;;;;5097548;28;20280;-13
2022/03/22 03:21:19;;;;;;;15.77;13.10;;;;;;;;;;5102037;22;20798;-12
2022/03/22 03:23:46;;;;;;;19.40;14.00;;;;;;;;;;5091832;28;20243;-13
2022/03/22 03:26:13;;;;;;;15.57;13.48;;;;;;;;;;5092371;28;20259;-12
2022/03/22 03:28:41;;;;;;;16.80;13.60;;;;;;;;;;5092024;28;20231;-13
2022/03/22 03:31:07;;;;;;;17.02;13.52;;;;;;;;;;5096380;28;20232;-14
2022/03/22 03:33:35;;;;;;;18.85;13.32;;;;;;;;;;5071919;28;20240;-14
2022/03/22 03:36:02;;;;;;;25.25;14.20;;;;;;;;;;5072213;28;20217;-15
2022/03/22 03:38:29;;;;;;;18.38;13.82;;;;;;;;;;5077558;28;20235;-14
2022/03/22 03:43:42;;;;;;;16.90;13.35;;;;;;;;;;5085679;28;20228;-12
2022/03/22 03:48:59;;;;;;;16.40;13.43;;;;;;;;;;5114853;28;20223;-12
2022/03/22 03:51:28;;;;;;;16.42;12.98;;;;;;;;;;5108045;27;20295;-12
2022/03/22 03:53:55;;;;;;;16.67;13.05;;;;;;;;;;5093761;28;20240;-12
2022/03/22 03:56:23;;;;;;;16.33;13.85;;;;;;;;;;5094546;28;20712;-12
2022/03/22 03:58:51;;;;;;;15.75;13.50;;;;;;;;;;5094337;28;21001;-12
2022/03/22 04:01:17;;;;;;;18.80;13.30;;;;;;;;;;5094107;28;20233;-12
2022/03/22 04:03:46;;;;;;;18.75;13.20;;;;;;;;;;5094613;28;21149;-12
2022/03/22 04:06:12;;;;;;;15.57;12.70;;;;;;;;;;5093348;28;20226;-12
2022/03/22 04:08:39;;;;;;;15.70;12.63;;;;;;;;;;5094553;28;20228;-13
2022/03/22 04:11:06;;;;;;;15.68;13.63;;;;;;;;;;5094603;28;20229;-12
2022/03/22 04:13:35;;;;;;;15.35;12.27;;;;;;;;;;5093585;28;20236;-12
2022/03/22 04:16:03;;;;;;;18.80;13.23;;;;;;;;;;5081964;28;20240;-12
2022/03/22 04:18:30;;;;;;;15.13;12.57;;;;;;;;;;5094640;28;20324;-13
2022/03/22 04:20:57;;;;;;;14.90;12.85;;;;;;;;;;5092012;28;20252;-12
2022/03/22 04:23:24;;;;;;;19.13;13.43;;;;;;;;;;5053954;28;20230;-13
2022/03/22 04:25:51;;;;;;;17.08;12.32;;;;;;;;;;5053973;28;20257;-12
2022/03/22 04:33:51;;;;;;;15.77;13.13;;;;;;;;;;5074245;28;20229;-12
2022/03/22 04:36:18;;;;;;;17.50;13.05;;;;;;;;;;5073816;28;20225;-12
2022/03/22 04:38:45;;;;;;;14.10;12.35;;;;;;;;;;5072867;28;20232;-12
2022/03/22 04:41:13;;;;;;;15.77;12.13;;;;;;;;;;5073460;28;20355;-12
2022/03/22 04:43:40;;;;;;;14.23;12.23;;;;;;;;;;5073734;28;20226;-12
2022/03/22 04:46:07;;;;;;;19.63;13.38;;;;;;;;;;5073766;28;20276;-13
2022/03/22 04:48:38;;;;;;;16.35;12.95;;;;;;;;;;5067621;28;20237;-12
2022/03/22 04:56:48;;;;;;;15.30;12.30;;;;;;;;;;5068520;28;20292;-12
2022/03/22 04:59:15;;;;;;;17.25;12.90;;;;;;;;;;5068026;28;20313;-12
2022/03/22 05:01:42;;;;;;;19.13;12.70;;;;;;;;;;5070035;28;20330;-12
2022/03/22 05:04:10;;;;;;;15.10;12.23;;;;;;;;;;5067398;28;20238;-12
2022/03/22 05:06:37;;;;;;;15.73;12.90;;;;;;;;;;5072765;28;20612;-13
2022/03/22 05:09:04;;;;;;;14.48;12.45;;;;;;;;;;5064682;28;20232;-12
2022/03/22 05:11:31;;;;;;;15.80;12.70;;;;;;;;;;5071050;28;20234;-12
2022/03/22 05:13:58;;;;;;;15.70;12.52;;;;;;;;;;5067081;28;20241;-12
2022/03/22 05:16:25;;;;;;;17.45;12.82;;;;;;;;;;5066703;28;20235;-12
2022/03/22 05:18:52;;;;;;;15.20;12.68;;;;;;;;;;5064369;28;20234;-13
2022/03/22 05:21:19;;;;;;;14.90;11.90;;;;;;;;;;5068126;28;20241;-13
2022/03/22 05:23:46;;;;;;;13.18;11.77;;;;;;;;;;5069830;28;20688;-12
2022/03/22 05:26:13;;;;;;;16.90;13.20;;;;;;;;;;5071104;28;20726;-12
2022/03/22 05:28:40;;;;;;;16.80;13.60;;;;;;;;;;5072029;28;20704;-12
2022/03/22 05:31:07;;;;;;;15.15;12.30;;;;;;;;;;5072093;28;20237;-14
2022/03/22 05:33:36;;;;;;;14.88;12.68;;;;;;;;;;5070210;28;20233;-14
2022/03/22 05:36:03;;;;;;;15.95;12.73;;;;;;;;;;5062811;28;20221;-15
2022/03/22 05:38:30;;;;;;;14.38;12.00;;;;;;;;;;5066528;28;20233;-14
2022/03/22 05:40:57;;;;;;;15.70;13.02;;;;;;;;;;5065062;28;20230;-14
2022/03/22 05:43:27;;;;;;;14.88;12.55;;;;;;;;;;5065079;28;20218;-14
2022/03/22 05:45:54;;;;;;;15.07;12.73;;;;;;;;;;5069714;28;20226;-14
2022/03/22 05:48:21;;;;;;;13.88;12.25;;;;;;;;;;5069510;28;20703;-14
2022/03/22 05:50:48;;;;;;;13.75;11.82;;;;;;;;;;5059959;28;20587;-14
2022/03/22 05:53:15;;;;;;;15.82;12.00;;;;;;;;;;5070230;28;20236;-14
2022/03/22 05:55:42;;;;;;;14.85;11.80;;;;;;;;;;5071739;28;20221;-15
2022/03/22 05:58:09;;;;;;;14.32;12.50;;;;;;;;;;5072179;28;20229;-14
2022/03/22 06:00:36;;;;;;;15.20;11.77;;;;;;;;;;5072219;28;20237;-14
2022/03/22 06:03:03;;;;;;;14.95;12.65;;;;;;;;;;5071193;28;20237;-14
2022/03/22 06:05:30;;;;;;;13.93;11.07;;;;;;;;;;5071997;28;20221;-14
2022/03/22 06:07:57;;;;;;;15.48;11.77;;;;;;;;;;5071444;28;20708;-14
2022/03/22 06:10:24;;;;;;;14.23;11.30;;;;;;;;;;5072339;28;20831;-15
2022/03/22 06:12:51;;;;;;;14.25;11.50;;;;;;;;;;5060963;28;20222;-14
2022/03/22 06:15:19;;;;;;;14.27;10.88;;;;;;;;;;5056597;28;20215;-14
2022/03/22 06:17:46;;;;;;;12.50;10.43;;;;;;;;;;5077630;28;20233;-14
2022/03/22 06:20:13;;;;;;;19.52;9.98;;;;;;;;;;5072747;28;20229;-15
2022/03/22 06:22:41;;;;;;;18.08;10.60;;;;;;;;;;5071290;28;20249;-12
2022/03/22 06:25:08;;;;;;;17.08;9.30;;;;;;;;;;5072150;28;20260;-12
2022/03/22 06:27:35;;;;;;;16.20;9.98;;;;;;;;;;5075250;28;20275;-15
2022/03/22 06:30:03;;;;;;;16.25;10.18;;;;;;;;;;5092319;28;20212;-13
2022/03/22 06:32:30;;;;;;;14.35;9.73;;;;;;;;;;5052280;28;20241;-12
2022/03/22 06:34:57;;;;;;;15.57;9.50;;;;;;;;;;5062023;28;20222;-13
2022/03/22 06:37:24;;;;;;;17.33;9.82;;;;;;;;;;5068824;28;20233;-12
2022/03/22 06:39:51;;;;;;;14.00;9.18;;;;;;;;;;5067818;28;20233;-12
2022/03/22 06:42:18;;;;;;;9.80;8.73;;;;;;;;;;5081676;28;20243;-14
2022/03/22 06:44:44;;;;;;;12.23;9.27;;;;;;;;;;5071265;28;20226;-14
2022/03/22 06:47:11;;;;;;;15.63;9.18;;;;;;;;;;5068661;28;20233;-14
2022/03/22 06:49:38;;;;;;;12.70;8.75;;;;;;;;;;5068049;28;20379;-14
2022/03/22 06:52:05;;;;;;;13.35;9.48;;;;;;;;;;5065165;28;20242;-14
2022/03/22 06:54:32;;;;;;;11.75;8.77;;;;;;;;;;5064487;28;20226;-14
2022/03/22 06:56:59;;;;;;;12.07;9.07;;;;;;;;;;5060027;28;20221;-14
2022/03/22 06:59:26;;;;;;;13.18;9.18;;;;;;;;;;5057533;28;20716;-14
2022/03/22 07:01:53;;;;;;;10.27;8.80;;;;;;;;;;5067024;28;20237;-15
2022/03/22 07:04:21;;;;;;;13.75;9.00;;;;;;;;;;5061756;28;21007;-15
2022/03/22 07:06:48;;;;;;;10.30;8.63;;;;;;;;;;5070000;28;20319;-14
2022/03/22 07:09:15;;;;;;;12.73;8.88;;;;;;;;;;5061935;28;20241;-14
2022/03/22 07:11:51;;;;;;;13.00;8.88;;;;;;;;;;5066589;28;20241;-14
2022/03/22 07:14:18;;;;;;;15.88;8.48;;;;;;;;;;5061018;28;20676;-15
2022/03/22 07:16:47;;;;;;;10.18;9.02;;;;;;;;;;5066759;28;20229;-14
2022/03/22 07:19:14;;;;;;;11.70;8.80;;;;;;;;;;5073155;28;20230;-15
2022/03/22 07:21:41;;;;;;;9.20;8.00;;;;;;;;;;5071970;28;20738;-14
2022/03/22 07:24:08;;;;;;;11.50;8.65;;;;;;;;;;5074549;28;21205;-12
2022/03/22 07:26:35;;;;;;;9.77;8.32;;;;;;;;;;5073692;28;20229;-14
2022/03/22 07:29:04;;;;;;;11.10;8.38;;;;;;;;;;5071523;28;20233;-12
2022/03/22 07:31:31;;;;;;;13.30;8.55;;;;;;;;;;5070557;28;20241;-12
2022/03/22 07:33:58;;;;;;;11.02;8.85;;;;;;;;;;5067764;28;20299;-12
2022/03/22 07:36:25;;;;;;;13.05;9.32;;;;;;;;;;5074096;28;21020;-12
2022/03/22 07:39:12;;;;;;;9.88;8.65;;;;;;;;;;5072089;28;20233;-14
2022/03/22 07:41:43;;;;;;;9.13;8.18;;;;;;;;;;5066336;28;20238;-14
2022/03/22 07:44:15;;;;;;;11.73;8.38;;;;;;;;;;5071403;28;20704;-14
2022/03/22 07:46:42;;;;;;;11.10;8.77;;;;;;;;;;5073019;28;20229;-14
2022/03/22 07:54:42;;;;;;;10.18;7.65;;;;;;;;;;5072798;28;20326;-14
2022/03/22 07:57:09;;;;;;;10.15;8.25;;;;;;;;;;5066817;28;20229;-15
2022/03/22 07:59:36;;;;;;;11.77;8.60;;;;;;;;;;5073821;28;20252;-15
2022/03/22 08:02:03;;;;;;;9.13;8.00;;;;;;;;;;5075275;28;20239;-14
2022/03/22 08:04:30;;;;;;;12.05;8.32;;;;;;;;;;5065420;28;20230;-13
2022/03/22 08:06:57;;;;;;;10.10;8.05;;;;;;;;;;5073692;28;20240;-12
2022/03/22 08:09:24;;;;;;;9.75;7.72;;;;;;;;;;5074068;28;21010;-14
2022/03/22 08:11:51;;;;;;;10.80;7.53;;;;;;;;;;5073881;28;20607;-12
2022/03/22 08:14:20;;;;;;;9.18;7.38;;;;;;;;;;5067891;28;20228;-12
2022/03/22 08:16:47;;;;;;;9.20;7.85;;;;;;;;;;5074068;28;20229;-14
2022/03/22 08:19:18;;;;;;;13.57;9.13;;;;;;;;;;5070222;28;20236;-14
2022/03/22 08:21:45;;;;;;;9.77;8.25;;;;;;;;;;5067707;28;20786;-12
2022/03/22 08:24:12;;;;;;;13.75;8.25;;;;;;;;;;5064754;28;20312;-12
2022/03/22 08:26:40;;;;;;;11.50;7.57;;;;;;;;;;5067441;28;21291;-12
2022/03/22 08:29:07;;;;;;;8.68;7.57;;;;;;;;;;5063986;28;20225;-12
2022/03/22 08:31:35;;;;;;;13.00;8.93;;;;;;;;;;5070283;28;20242;-12
2022/03/22 08:34:02;;;;;;;12.02;7.90;;;;;;;;;;5070133;28;20978;-14
2022/03/22 08:36:29;;;;;;;17.33;8.90;;;;;;;;;;5071146;28;20240;-14
2022/03/22 08:38:57;;;;;;;26.60;9.25;;;;;;;;;;5069285;28;21482;-14
2022/03/22 08:41:24;;;;;;;21.40;8.35;;;;;;;;;;5072375;28;20237;-14
2022/03/22 08:43:54;;;;;;;19.20;8.35;;;;;;;;;;5067290;28;20421;-14
2022/03/22 08:46:24;;;;;;;12.80;7.22;;;;;;;;;;5067890;28;21014;-13
2022/03/22 08:48:52;;;;;;;19.27;9.38;;;;;;;;;;5064529;28;20896;-12
2022/03/22 08:51:19;;;;;;;18.42;9.80;;;;;;;;;;5070781;28;20245;-12
2022/03/22 08:53:46;;;;;;;20.77;10.60;;;;;;;;;;5058693;28;20423;-14
2022/03/22 08:56:13;;;;;;;16.35;9.88;;;;;;;;;;5058968;28;20712;-14
2022/03/22 08:58:40;;;;;;;14.73;9.90;;;;;;;;;;5072555;28;20284;-14
2022/03/22 09:01:07;;;;;;;21.08;9.75;;;;;;;;;;5071916;28;20317;-12
2022/03/22 09:03:35;;;;;;;18.35;8.90;;;;;;;;;;5055151;28;20277;-14
2022/03/22 09:06:08;;;;;;;15.43;9.52;;;;;;;;;;5053169;28;20717;-14
2022/03/22 09:08:36;;;;;;;11.30;8.30;;;;;;;;;;5068629;28;20234;-14
2022/03/22 09:11:03;;;;;;;13.07;8.57;;;;;;;;;;5072123;28;20747;-14
2022/03/22 09:13:37;;;;;;;12.70;8.32;;;;;;;;;;5069872;28;20704;-14
2022/03/22 09:16:05;;;;;;;18.75;7.97;;;;;;;;;;5071071;28;20230;-14
2022/03/22 09:18:32;;;;;;;18.45;9.02;;;;;;;;;;5071409;28;20266;-14
2022/03/22 09:21:00;;;;;;;18.77;9.50;;;;;;;;;;5066953;28;20423;-14
2022/03/22 09:23:27;;;;;;;32.50;10.50;;;;;;;;;;5070741;28;20648;-14
2022/03/22 09:25:54;;;;;;;21.75;9.60;;;;;;;;;;5070452;28;20225;-14
2022/03/22 09:28:21;;;;;;;20.70;9.27;;;;;;;;;;5071958;28;20707;-15
2022/03/22 09:30:49;;;;;;;24.67;10.38;;;;;;;;;;5069137;28;20447;-14
2022/03/22 09:33:17;;;;;;;35.15;10.25;;;;;;;;;;5070216;28;20425;-14
2022/03/22 09:35:44;;;;;;;24.25;9.70;;;;;;;;;;5064407;28;20519;-14
2022/03/22 09:38:15;;;;;;;20.02;8.65;;;;;;;;;;5071235;28;20253;-15
2022/03/22 09:40:42;;;;;;;30.77;9.75;;;;;;;;;;5068729;28;20239;-15
2022/03/22 09:43:09;;;;;;;31.77;8.98;;;;;;;;;;5070465;28;20696;-12
2022/03/22 09:45:37;;;;;;;28.08;9.43;;;;;;;;;;5071124;28;20222;-13
2022/03/22 09:48:04;;;;;;;27.58;9.43;;;;;;;;;;5070350;28;20249;-12
2022/03/22 09:53:17;;;;;;;30.05;9.38;;;;;;;;;;5062364;28;21006;-12
2022/03/22 09:55:44;;;;;;;33.53;9.32;;;;;;;;;;5071265;28;20616;-14
2022/03/22 09:58:11;;;;;;;34.20;8.82;;;;;;;;;;5070239;28;21411;-14
2022/03/22 10:00:38;;;;;;;29.25;11.38;;;;;;;;;;5068621;28;20266;-14
2022/03/22 10:03:06;;;;;;;25.55;10.57;;;;;;;;;;5065899;28;20538;-15
2022/03/22 10:05:33;;;;;;;24.73;10.02;;;;;;;;;;5070317;28;20288;-14
2022/03/22 10:08:00;;;;;;;23.80;10.48;;;;;;;;;;5067715;28;20229;-14
2022/03/22 10:10:27;;;;;;;31.95;10.52;;;;;;;;;;5068272;28;20223;-15
2022/03/22 10:12:54;;;;;;;26.02;11.55;;;;;;;;;;5061914;28;20708;-14
2022/03/22 10:15:21;;;;;;;28.52;11.27;;;;;;;;;;5063506;28;20735;-15
2022/03/22 10:17:48;;;;;;;21.63;11.05;;;;;;;;;;5068562;28;21017;-14
2022/03/22 10:20:15;;;;;;;26.50;12.52;;;;;;;;;;5069279;28;21137;-14
2022/03/22 10:22:42;;;;;;;24.45;12.50;;;;;;;;;;5063654;28;20499;-14
2022/03/22 10:25:09;;;;;;;17.85;10.98;;;;;;;;;;5048256;28;20229;-14
2022/03/22 10:27:37;;;;;;;22.38;11.00;;;;;;;;;;5064428;28;20222;-14
2022/03/22 10:30:24;;;;;;;19.60;11.63;;;;;;;;;;5062090;28;20233;-14
2022/03/22 10:32:51;;;;;;;16.25;10.20;;;;;;;;;;5060617;28;20247;-14
2022/03/22 10:35:20;;;;;;;21.48;11.88;;;;;;;;;;5068692;28;20513;-14
2022/03/22 10:37:47;;;;;;;21.40;11.50;;;;;;;;;;5069321;28;20316;-14
2022/03/22 10:40:14;;;;;;;23.58;10.98;;;;;;;;;;5068378;28;20701;-14
2022/03/22 10:42:41;;;;;;;18.27;10.90;;;;;;;;;;5069153;28;20439;-14
2022/03/22 10:45:08;;;;;;;26.63;12.02;;;;;;;;;;5067297;28;20927;-15
2022/03/22 10:47:35;;;;;;;21.30;10.98;;;;;;;;;;5068739;28;20439;-14
2022/03/22 10:50:02;;;;;;;25.25;10.77;;;;;;;;;;5063676;28;20520;-14
2022/03/22 10:52:29;;;;;;;18.50;10.77;;;;;;;;;;5053745;28;20249;-15
2022/03/22 10:54:56;;;;;;;20.40;10.55;;;;;;;;;;5061144;28;20400;-15
2022/03/22 10:57:29;;;;;;;18.60;9.43;;;;;;;;;;5069815;28;20229;-14
2022/03/22 10:59:57;;;;;;;18.17;10.07;;;;;;;;;;5069544;28;20717;-14
2022/03/22 11:02:24;;;;;;;24.85;9.93;;;;;;;;;;5068143;28;20246;-15
2022/03/22 11:04:52;;;;;;;17.85;9.80;;;;;;;;;;5069676;28;20287;-15
2022/03/22 11:07:19;;;;;;;20.73;9.98;;;;;;;;;;5058903;28;20230;-14
2022/03/22 11:09:46;;;;;;;21.05;9.65;;;;;;;;;;5055435;28;20287;-14
2022/03/22 11:12:13;;;;;;;19.85;9.93;;;;;;;;;;5068012;28;20421;-14
2022/03/22 11:14:40;;;;;;;16.45;9.40;;;;;;;;;;5068336;28;20237;-14
2022/03/22 11:17:07;;;;;;;16.63;9.23;;;;;;;;;;5069289;28;20263;-13
2022/03/22 11:19:34;;;;;;;16.10;9.40;;;;;;;;;;5064601;28;20238;-14
2022/03/22 11:22:01;;;;;;;17.80;9.73;;;;;;;;;;5048937;28;20253;-14
2022/03/22 11:24:28;;;;;;;12.52;8.90;;;;;;;;;;5064699;28;20696;-14
2022/03/22 11:26:56;;;;;;;17.65;10.02;;;;;;;;;;5070522;28;20927;-14
2022/03/22 11:29:25;;;;;;;16.40;9.32;;;;;;;;;;5061056;28;20720;-14
2022/03/22 11:34:37;;;;;;;14.80;9.40;;;;;;;;;;5066284;28;20233;-14
2022/03/22 11:37:08;;;;;;;15.73;8.88;;;;;;;;;;5066509;28;20279;-14
2022/03/22 11:42:20;;;;;;;13.27;9.02;;;;;;;;;;5068410;28;20229;-14
2022/03/22 11:44:47;;;;;;;13.88;9.68;;;;;;;;;;5069087;28;20233;-14
2022/03/22 11:47:14;;;;;;;15.90;9.25;;;;;;;;;;5085986;28;20225;-14
2022/03/22 11:49:42;;;;;;;11.90;9.27;;;;;;;;;;5084423;28;20229;-14
2022/03/22 11:52:10;;;;;;;10.60;8.77;;;;;;;;;;5050308;28;20953;-13
2022/03/22 11:54:37;;;;;;;17.40;8.98;;;;;;;;;;5049645;28;20681;-14
2022/03/22 11:57:04;;;;;;;14.40;9.27;;;;;;;;;;5064997;28;20236;-13
2022/03/22 11:59:31;;;;;;;13.15;9.45;;;;;;;;;;5087995;28;20761;-13
2022/03/22 12:01:58;;;;;;;14.05;9.73;;;;;;;;;;5086486;28;20236;-13
2022/03/22 12:04:25;;;;;;;26.63;17.67;;;;;;;;;;5089378;28;20897;-13
2022/03/22 12:06:52;;;;;;;23.25;13.82;;;;;;;;;;5093478;28;20236;-13
2022/03/22 12:09:19;;;;;;;26.25;14.95;;;;;;;;;;5074195;28;20781;-13
2022/03/22 12:11:46;;;;;;;22.53;15.50;;;;;;;;;;5070667;28;20840;-13
2022/03/22 12:14:13;;;;;;;30.60;14.68;;;;;;;;;;5072401;28;21014;-13
2022/03/22 12:16:40;;;;;;;19.40;13.25;;;;;;;;;;5072047;28;20253;-13
2022/03/22 12:19:10;;;;;;;19.73;13.70;;;;;;;;;;5072684;28;20770;-14
2022/03/22 12:21:37;;;;;;;22.40;12.95;;;;;;;;;;5071581;28;20332;-13
2022/03/22 12:24:04;;;;;;;17.88;13.00;;;;;;;;;;5071672;28;20444;-13
2022/03/22 12:26:31;;;;;;;18.63;12.30;;;;;;;;;;5072569;28;20226;-13
2022/03/22 12:28:58;;;;;;;18.98;12.02;;;;;;;;;;5072456;28;20229;-13
2022/03/22 12:31:25;;;;;;;19.13;11.75;;;;;;;;;;5079415;28;20239;-14
2022/03/22 12:33:52;;;;;;;20.15;12.05;;;;;;;;;;5093282;28;20309;-13
2022/03/22 12:36:19;;;;;;;18.92;10.82;;;;;;;;;;5093193;28;20229;-13
2022/03/22 12:38:46;;;;;;;22.85;11.60;;;;;;;;;;5093605;28;20240;-13
2022/03/22 12:41:13;;;;;;;19.13;11.65;;;;;;;;;;5076357;28;21237;-13
2022/03/22 12:43:45;;;;;;;22.45;12.73;;;;;;;;;;5073000;28;20730;-13
2022/03/22 12:46:12;;;;;;;21.63;11.98;;;;;;;;;;5082025;28;20225;-13
2022/03/22 12:48:39;;;;;;;32.85;16.88;;;;;;;;;;5091292;28;20733;-13
2022/03/22 12:51:06;;;;;;;32.28;17.85;;;;;;;;;;5065800;28;20776;-13
2022/03/22 12:53:33;;;;;;;43.42;16.42;;;;;;;;;;5072268;28;20284;-13
2022/03/22 12:56:00;;;;;;;30.10;15.40;;;;;;;;;;5073251;28;20237;-13
2022/03/22 12:58:28;;;;;;;27.15;16.45;;;;;;;;;;5073981;28;20700;-13
2022/03/22 13:00:55;;;;;;;28.55;15.30;;;;;;;;;;5074135;28;20221;-13
2022/03/22 13:03:22;;;;;;;31.73;15.95;;;;;;;;;;5071035;28;20233;-13
2022/03/22 13:05:53;;;;;;;32.25;15.20;;;;;;;;;;5073272;28;20213;-13
2022/03/22 13:08:20;;;;;;;22.52;15.07;;;;;;;;;;5073350;28;20235;-13
2022/03/22 13:16:18;;;;;;;19.17;13.57;;;;;;;;;;5083169;28;20221;-13
2022/03/22 13:18:45;;;;;;;24.20;13.27;;;;;;;;;;5093266;28;21054;-13
2022/03/22 13:21:13;;;;;;;22.83;12.85;;;;;;;;;;5074755;28;21014;-13
2022/03/22 13:23:40;;;;;;;21.55;12.82;;;;;;;;;;5052822;28;20280;-13
2022/03/22 13:26:07;;;;;;;17.77;13.48;;;;;;;;;;5068813;28;20229;-13
2022/03/22 13:28:34;;;;;;;18.02;13.23;;;;;;;;;;5073054;28;20270;-13
2022/03/22 13:31:04;;;;;;;20.25;13.13;;;;;;;;;;5065359;28;21003;-13
2022/03/22 13:33:33;;;;;;;20.48;12.10;;;;;;;;;;5052248;28;20233;-13
2022/03/22 13:36:00;;;;;;;18.98;12.68;;;;;;;;;;5061449;28;20229;-13
2022/03/22 13:38:27;;;;;;;19.33;12.27;;;;;;;;;;5072650;28;20225;-13
2022/03/22 13:40:57;;;;;;;17.67;12.73;;;;;;;;;;5066828;28;20223;-13
2022/03/22 13:43:24;;;;;;;15.80;11.57;;;;;;;;;;5067388;28;20278;-13
2022/03/22 13:45:52;;;;;;;16.33;11.82;;;;;;;;;;5079747;28;20217;-13
2022/03/22 13:48:19;;;;;;;18.45;11.52;;;;;;;;;;5073897;28;20233;-13
2022/03/22 13:50:46;;;;;;;14.05;10.75;;;;;;;;;;5075415;28;20229;-13
2022/03/22 13:53:13;;;;;;;13.65;11.00;;;;;;;;;;5092438;28;20232;-13
2022/03/22 13:55:40;;;;;;;14.00;10.70;;;;;;;;;;5093019;28;20599;-13
2022/03/22 13:58:07;;;;;;;16.23;11.55;;;;;;;;;;5082930;28;20320;-13
2022/03/22 14:00:47;;;;;;;20.40;11.10;;;;;;;;;;5078736;28;20216;-13
2022/03/22 14:03:14;;;;;;;18.17;11.15;;;;;;;;;;5092706;28;20221;-13
2022/03/22 14:05:42;;;;;;;15.40;11.40;;;;;;;;;;5093145;28;20225;-13
2022/03/22 14:08:09;;;;;;;15.40;10.32;;;;;;;;;;5074935;28;20222;-13
2022/03/22 14:10:36;;;;;;;14.27;10.02;;;;;;;;;;5052715;28;20693;-13
2022/03/22 14:13:03;;;;;;;14.30;10.20;;;;;;;;;;5052847;28;20230;-13
2022/03/22 14:15:30;;;;;;;14.30;10.40;;;;;;;;;;5056400;28;20225;-13
2022/03/22 14:17:58;;;;;;;15.60;10.52;;;;;;;;;;5066236;28;20241;-13
2022/03/22 14:20:25;;;;;;;16.15;11.40;;;;;;;;;;5062415;28;20240;-13
2022/03/22 14:22:53;;;;;;;26.85;12.10;;;;;;;;;;5068338;28;20249;-13
2022/03/22 14:25:20;;;;;;;27.00;12.10;;;;;;;;;;5052191;28;20222;-13
2022/03/22 14:27:48;;;;;;;21.88;12.70;;;;;;;;;;5052469;28;20309;-13
2022/03/22 14:30:15;;;;;;;21.80;12.63;;;;;;;;;;5067116;28;20226;-13
2022/03/22 14:32:42;;;;;;;22.50;12.43;;;;;;;;;;5071982;28;20233;-12
2022/03/22 14:35:56;;;;;;;21.75;12.40;;;;;;;;;;5068908;28;20234;-13
2022/03/22 14:37:56;;;;;;;23.85;12.13;;;;;;;;;;5054231;28;21249;-13
2022/03/22 14:40:23;;;;;;;17.83;12.35;;;;;;;;;;5068941;28;20233;-13
2022/03/22 14:42:51;;;;;;;22.92;13.38;;;;;;;;;;5068601;28;20256;-13
2022/03/22 14:45:21;;;;;;;18.90;12.80;;;;;;;;;;5071645;28;20240;-13
2022/03/22 14:47:49;;;;;;;24.25;13.27;;;;;;;;;;5063751;28;20241;-13
2022/03/22 14:50:16;;;;;;;18.40;12.40;;;;;;;;;;5067342;28;20235;-13
2022/03/22 14:55:28;;;;;;;16.50;11.32;;;;;;;;;;5067586;28;20240;-13
2022/03/22 15:00:41;;;;;;;19.08;10.63;;;;;;;;;;5072968;28;20225;-13
2022/03/22 15:03:08;;;;;;;17.13;11.25;;;;;;;;;;5069092;28;20268;-13
2022/03/22 15:05:39;;;;;;;18.15;11.15;;;;;;;;;;5067225;28;21141;-13
2022/03/22 15:08:09;;;;;;;18.13;11.88;;;;;;;;;;5070496;28;20281;-13
2022/03/22 15:10:36;;;;;;;17.23;10.48;;;;;;;;;;5071290;28;20227;-13
2022/03/22 15:13:04;;;;;;;17.15;11.10;;;;;;;;;;5070634;28;20441;-13